Flight Track Log - Related Links

Times and Time Zones

All times are in EDT time to prevent confusion due to time zone crossing. See the GJS3657 flight status page for this flight to view local times or setup timezone preferences in your user account.

Time Position Orientation Groundspeed Altitude Reporting Facility
EDT Latitude Longitude Course Direction KTS MPH feet Rate Location/Type
Mon 09:43:32 AM 45.7639 -111.1344 138° Southeast 202 232 5,100  Level Salt Lake Center
Mon 09:43:40 AM 45.6456 -111.0425 151° Southeast 147 169 5,400 1,778 Climbing Salt Lake Center
Mon 09:43:59 AM 45.6353 -111.0292 138° Southeast 159 183 5,900 1,585 Climbing Salt Lake Center
Mon 09:44:33 AM 45.7292 -111.0817 339° North 180 207 6,800 1,900 Climbing Salt Lake Center
Mon 09:44:59 AM 45.5931 -110.9694 150° Southeast 223 257 7,800 1,770 Climbing Salt Lake Center
Mon 09:45:34 AM 45.6822 -111.0111 342° North 231 266 8,600 1,574 Climbing Salt Lake Center
Mon 09:46:00 AM 45.5494 -110.8981 149° Southeast 271 312 9,400 1,770 Climbing Salt Lake Center
Mon 09:46:35 AM 45.6558 -110.9006 359° North 300 345 10,400 2,100 Climbing Salt Lake Center
Mon 09:47:00 AM 45.5314 -110.7717 144° Southeast 339 390 11,500 2,419 Climbing Salt Lake Center
Mon 09:47:37 AM 45.6264 -110.7817 356° North 321 369 12,900 2,262 Climbing Salt Lake Center
Mon 09:48:00 AM 45.2700 -110.5267 138° Southeast  Level Estimated
Mon 09:48:01 AM 45.4772 -110.6775 154° Southeast 314 361 13,800  Level Salt Lake Center
Mon 09:48:38 AM 45.5569 -110.7064 346° North 310 357 15,200 2,239 Climbing Salt Lake Center
Mon 09:49:08 AM 45.4017 -110.5950 153° Southeast 316 364 16,300 1,869 Climbing Salt Lake Center
Mon 09:49:39 AM 45.4864 -110.6225 347° North 324 373 17,100 1,400 Climbing Salt Lake Center
Mon 09:50:08 AM 45.3253 -110.5103 154° Southeast 343 395 17,700 1,180 Climbing Salt Lake Center
Mon 09:50:40 AM 45.4175 -110.5439 346° North 343 395 18,300 1,377 Climbing Salt Lake Center
Mon 09:51:09 AM 45.2408 -110.4206 154° Southeast 382 440 19,100 1,279 Climbing Salt Lake Center
Mon 09:51:41 AM 45.3319 -110.4431 350° North 402 463 19,600 1,200 Climbing Salt Lake Center
Mon 09:52:09 AM 45.1506 -110.3183 154° Southeast 412 474 20,300 1,180 Climbing Salt Lake Center
Mon 09:52:42 AM 45.2436 -110.3417 350° North 410 472 20,800 1,180 Climbing Salt Lake Center
Mon 09:53:10 AM 45.0558 -110.2158 155° Southeast 423 487 21,500 1,355 Climbing Salt Lake Center
Mon 09:53:44 AM 45.1328 -110.2114 North 433 498 22,200 1,279 Climbing Salt Lake Center
Mon 09:54:11 AM 44.9592 -110.1083 157° South 437 503 22,800 1,279 Climbing Salt Lake Center
Mon 09:54:45 AM 45.0372 -110.0983 North 443 510 23,500 1,200 Climbing Salt Lake Center
Mon 09:55:11 AM 44.8597 -109.9994 158° South 447 514 24,000 1,082 Climbing Salt Lake Center
Mon 09:55:46 AM 44.9444 -109.9903 North 449 517 24,600 1,180 Climbing Salt Lake Center
Mon 09:56:12 AM 44.7578 -109.8894 159° South 453 521 25,200 1,180 Climbing Salt Lake Center
Mon 09:56:47 AM 44.8494 -109.8828 North 455 524 25,800 1,222 Climbing Salt Lake Center
Mon 09:57:06 AM 44.6714 -109.7958 161° South 457 526 26,300 1,258 Climbing Salt Lake Center
Mon 09:57:49 AM 44.7461 -109.7633 17° North 457 526 27,100 1,180 Climbing Salt Lake Center
Mon 09:58:07 AM 44.5683 -109.6839 162° South 459 528 27,500 1,180 Climbing Salt Lake Center
Mon 09:58:50 AM 44.6469 -109.6503 17° North 462 532 28,300 1,154 Climbing Salt Lake Center
Mon 09:59:51 AM 44.5497 -109.5381 141° Southeast 458 527 29,500 1,082 Climbing Salt Lake Center
Mon 10:00:52 AM 44.4514 -109.4267 141° Southeast 454 522 30,500 732 Climbing Salt Lake Center
Mon 10:01:54 AM 44.3497 -109.3131 141° Southeast 464 534 31,000 683 Climbing Salt Lake Center
Mon 10:02:55 AM 44.2242 -109.1717 141° Southeast 482 555 31,900 787 Climbing Salt Lake Center
Mon 10:03:56 AM 44.1181 -109.0536 141° Southeast 489 563 32,600 689 Climbing Salt Lake Center
Mon 10:04:57 AM 44.0131 -108.9350 141° Southeast 489 563 33,300 780 Climbing Salt Lake Center
Mon 10:05:59 AM 43.9069 -108.8175 141° Southeast 490 564 34,200 878 Climbing Salt Lake Center
Mon 10:07:00 AM 43.8022 -108.7028 142° Southeast 484 557 35,100 885 Climbing Salt Lake Center
Mon 10:08:01 AM 43.6972 -108.5892 142° Southeast 482 555 36,000 885 Climbing Salt Lake Center
Mon 10:09:02 AM 43.5936 -108.4739 141° Southeast 480 552 36,900 878 Climbing Salt Lake Center
Mon 10:10:04 AM 43.4908 -108.3642 142° Southeast 472 543 37,800 976 Climbing Salt Lake Center
Mon 10:11:05 AM 43.3714 -108.2325 141° Southeast 463 533 38,900 590 Climbing Salt Lake Center
Mon 10:12:06 AM 43.2728 -108.1275 142° Southeast 454 522 39,000 49 Climbing Salt Lake Center
Mon 10:13:08 AM 43.1711 -108.0197 142° Southeast 462 532 39,000  Level Salt Lake Center
Mon 10:14:09 AM 43.0672 -107.9083 142° Southeast 472 543 39,000  Level Salt Lake Center
Mon 10:15:10 AM 42.9642 -107.7978 142° Southeast 474 545 39,000  Level Salt Lake Center
Mon 10:16:12 AM 42.8475 -107.6736 142° Southeast 478 550 39,000  Level Salt Lake Center
Mon 10:17:13 AM 42.7461 -107.5656 142° Southeast 480 552 39,000  Level Salt Lake Center
Mon 10:18:15 AM 42.6447 -107.4603 143° Southeast 479 551 39,000  Level Salt Lake Center
Mon 10:19:16 AM 42.5311 -107.3431 143° Southeast 465 535 39,000  Level Salt Lake Center
Mon 10:20:17 AM 42.4339 -107.2436 143° Southeast 458 527 39,000  Level Salt Lake Center
Mon 10:21:01 AM 42.3553 -107.1636 143° Southeast 448 516 39,000  Level Denver Center
Mon 10:22:03 AM 42.2603 -107.0658 143° Southeast 447 514 39,000  Level Denver Center
Mon 10:23:05 AM 42.1467 -106.9517 143° Southeast 455 524 39,000  Level Denver Center
Mon 10:24:06 AM 42.0467 -106.8525 144° Southeast 462 532 39,000  Level Denver Center
Mon 10:25:08 AM 41.9292 -106.7325 143° Southeast 471 542 39,000 -145 Level Denver Center
Mon 10:26:10 AM 41.8267 -106.6314 144° Southeast 475 547 38,700 -823 Descending Denver Center
Mon 10:27:12 AM 41.7206 -106.5272 144° Southeast 484 557 37,300 -1,512 Descending Denver Center
Mon 10:28:13 AM 41.6003 -106.4100 144° Southeast 484 557 35,600 -1,512 Descending Denver Center
Mon 10:29:15 AM 41.4950 -106.3033 143° Southeast 491 565 34,200 -1,500 Descending Denver Center
Mon 10:30:17 AM 41.3731 -106.1856 144° Southeast 488 562 32,500 -1,500 Descending Denver Center
Mon 10:31:19 AM 41.2647 -106.0808 144° Southeast 498 573 31,100 -1,694 Descending Denver Center
Mon 10:32:21 AM 41.1389 -105.9572 143° Southeast 504 580 29,000 -1,839 Descending Denver Center
Mon 10:33:23 AM 41.0386 -105.8603 144° Southeast 478 550 27,300 -1,790 Descending Denver Center
Mon 10:34:25 AM 40.9272 -105.7528 144° Southeast 464 534 25,300 -1,790 Descending Denver Center
Mon 10:35:27 AM 40.8294 -105.6603 144° Southeast 440 506 23,600 -1,548 Descending Denver Center
Mon 10:36:29 AM 40.7389 -105.5714 143° Southeast 412 474 22,100 -1,415 Descending Denver Center
Mon 10:37:30 AM 40.6497 -105.4853 144° Southeast 400 460 20,700 -1,355 Descending Denver Center
Mon 10:38:33 AM 40.5739 -105.3836 134° Southeast 388 447 19,300 -1,344 Descending Denver Center
Mon 10:39:35 AM 40.5036 -105.2578 126° Southeast 358 412 17,900 -1,161 Descending Denver Center
Mon 10:40:37 AM 40.4647 -105.1394 113° Southeast 367 422 16,900 -1,113 Descending Denver Center
Mon 10:41:39 AM 40.4303 -105.0147 110° East 338 389 15,600 -1,161 Descending Denver Center
Mon 10:42:41 AM 40.4003 -104.9144 111° Southeast 299 344 14,500 -1,065 Descending Denver Center
Mon 10:43:43 AM 40.3311 -104.8514 145° Southeast 282 325 13,400 -1,016 Descending Denver Center
Mon 10:44:45 AM 40.2614 -104.8042 153° Southeast 283 326 12,400 -1,016 Descending Denver Center
Mon 10:45:47 AM 40.1944 -104.7589 153° Southeast 273 314 11,300 -1,355 Descending Denver Center
Mon 10:46:49 AM 40.1300 -104.7142 152° Southeast 246 283 9,600 -1,500 Descending Denver Center
Mon 10:47:51 AM 40.0736 -104.6944 165° South 205 236 8,200 -919 Descending Denver Center
Mon 10:48:53 AM 40.0192 -104.6947 180° South 183 211 7,700 -726 Descending Denver Center
Mon 10:49:55 AM 39.9692 -104.6956 181° South 180 207 6,700 -774 Descending Denver Center
Mon 10:50:57 AM 39.9336 -104.6956 180° South 146 168 6,100 -677 Descending Denver Center
Mon 10:51:59 AM 39.8858 -104.6961 181° South 143 165 5,300 -774 Descending Denver Center
Mon 10:53:00 AM 39.8617 -104.6732 180° South  Level Estimated
Mon 11:00:00 AM 39.8617 -104.6732 180° South  Level Estimated
Mon 11:01:00 AM 39.8617 -104.6732 180° South  Level Estimated
Mon 11:02:00 AM 39.8617 -104.6732 180° South  Level Estimated

Login

Don't have an account? Register now (free) for customized features, flight alerts, and more!